Wetterdaten: Dienstag, 15.03.2011
Datum Zeit Temp. A. Feuchte A. Luftdruck Regen Wind Richtung Richtung Sonnenschein UV Solar Windben
15.03.2011 00:00 5,7 C 93 % 1018,9 hPa 0,0 mm 0,0 km/h (0 Bft) N 0 0 min 0 UV-I 0 W/m 0,0 km/h (0 Bft)
15.03.2011 00:10 5,6 C 93 % 1018,9 hPa 0,0 mm 0,0 km/h (0 Bft) N 0 0 min 0 UV-I 0 W/m 0,0 km/h (0 Bft)
15.03.2011 00:20 5,4 C 93 % 1018,8 hPa 0,0 mm 0,0 km/h (0 Bft) N 0 0 min 0 UV-I 0 W/m 0,0 km/h (0 Bft)
15.03.2011 00:30 5,4 C 93 % 1018,6 hPa 0,0 mm 0,0 km/h (0 Bft) W 270 0 min 0 UV-I 0 W/m 1,6 km/h (1 Bft)
15.03.2011 00:40 5,4 C 93 % 1018,7 hPa 0,0 mm 0,0 km/h (0 Bft) W 270 0 min 0 UV-I 0 W/m 1,6 km/h (1 Bft)
15.03.2011 00:50 5,6 C 93 % 1018,7 hPa 0,0 mm 0,0 km/h (0 Bft) N 0 0 min 0 UV-I 0 W/m 0,0 km/h (0 Bft)
15.03.2011 01:00 5,6 C 93 % 1018,7 hPa 0,0 mm 0,0 km/h (0 Bft) N 0 0 min 0 UV-I 0 W/m 0,0 km/h (0 Bft)
15.03.2011 01:10 5,6 C 93 % 1018,7 hPa 0,0 mm 0,0 km/h (0 Bft) N 0 0 min 0 UV-I 0 W/m 0,0 km/h (0 Bft)
15.03.2011 01:20 5,6 C 94 % 1018,7 hPa 0,0 mm 0,0 km/h (0 Bft) N 0 0 min 0 UV-I 0 W/m 0,0 km/h (0 Bft)
15.03.2011 01:30 5,7 C 94 % 1018,6 hPa 0,0 mm 0,0 km/h (0 Bft) N 0 0 min 0 UV-I 0 W/m 0,0 km/h (0 Bft)
15.03.2011 01:40 5,7 C 94 % 1018,7 hPa 0,0 mm 0,0 km/h (0 Bft) N 0 0 min 0 UV-I 0 W/m 0,0 km/h (0 Bft)
15.03.2011 01:50 5,8 C 94 % 1018,7 hPa 0,0 mm 0,0 km/h (0 Bft) W 270 0 min 0 UV-I 0 W/m 1,6 km/h (1 Bft)
15.03.2011 02:00 5,8 C 94 % 1018,6 hPa 0,0 mm 0,0 km/h (0 Bft) N 0 0 min 0 UV-I 0 W/m 0,0 km/h (0 Bft)
15.03.2011 02:10 5,7 C 94 % 1018,5 hPa 0,0 mm 0,0 km/h (0 Bft) N 0 0 min 0 UV-I 0 W/m 0,0 km/h (0 Bft)
15.03.2011 02:20 5,8 C 94 % 1018,5 hPa 0,0 mm 0,0 km/h (0 Bft) N 0 0 min 0 UV-I 0 W/m 0,0 km/h (0 Bft)
15.03.2011 02:30 5,8 C 94 % 1018,5 hPa 0,0 mm 0,0 km/h (0 Bft) N 0 0 min 0 UV-I 0 W/m 0,0 km/h (0 Bft)
15.03.2011 02:40 5,8 C 94 % 1018,4 hPa 0,0 mm 0,0 km/h (0 Bft) N 0 0 min 0 UV-I 0 W/m 0,0 km/h (0 Bft)
15.03.2011 02:50 5,9 C 94 % 1018,4 hPa 0,0 mm 0,0 km/h (0 Bft) N 0 0 min 0 UV-I 0 W/m 0,0 km/h (0 Bft)
15.03.2011 03:00 5,9 C 94 % 1018,4 hPa 0,0 mm 0,0 km/h (0 Bft) N 0 0 min 0 UV-I 0 W/m 0,0 km/h (0 Bft)
15.03.2011 03:10 5,8 C 94 % 1018,3 hPa 0,0 mm 0,0 km/h (0 Bft) N 0 0 min 0 UV-I 0 W/m 0,0 km/h (0 Bft)
15.03.2011 03:20 5,8 C 94 % 1018,3 hPa 0,0 mm 0,0 km/h (0 Bft) N 0 0 min 0 UV-I 0 W/m 0,0 km/h (0 Bft)
15.03.2011 03:30 5,8 C 94 % 1018,3 hPa 0,0 mm 0,0 km/h (0 Bft) N 0 0 min 0 UV-I 0 W/m 0,0 km/h (0 Bft)
15.03.2011 03:40 5,8 C 94 % 1018,2 hPa 0,0 mm 0,0 km/h (0 Bft) N 0 0 min 0 UV-I 0 W/m 0,0 km/h (0 Bft)
15.03.2011 03:50 5,8 C 94 % 1018,2 hPa 0,0 mm 0,0 km/h (0 Bft) N 0 0 min 0 UV-I 0 W/m 0,0 km/h (0 Bft)
15.03.2011 04:00 5,7 C 94 % 1018,2 hPa 0,0 mm 0,0 km/h (0 Bft) N 0 0 min 0 UV-I 0 W/m 0,0 km/h (0 Bft)
15.03.2011 04:10 5,4 C 94 % 1018,2 hPa 0,0 mm 0,0 km/h (0 Bft) N 0 0 min 0 UV-I 0 W/m 0,0 km/h (0 Bft)
15.03.2011 04:20 5,4 C 94 % 1018,2 hPa 0,0 mm 0,0 km/h (0 Bft) N 0 0 min 0 UV-I 0 W/m 0,0 km/h (0 Bft)
15.03.2011 04:30 5,2 C 94 % 1018,2 hPa 0,0 mm 0,0 km/h (0 Bft) N 0 0 min 0 UV-I 0 W/m 0,0 km/h (0 Bft)
15.03.2011 04:40 5,1 C 94 % 1018,2 hPa 0,0 mm 0,0 km/h (0 Bft) N 0 0 min 0 UV-I 0 W/m 0,0 km/h (0 Bft)
15.03.2011 04:50 4,8 C 94 % 1018,1 hPa 0,0 mm 0,0 km/h (0 Bft) N 0 0 min 0 UV-I 0 W/m 0,0 km/h (0 Bft)
15.03.2011 05:00 4,7 C 94 % 1018,2 hPa 0,0 mm 0,0 km/h (0 Bft) N 0 0 min 0 UV-I 0 W/m 0,0 km/h (0 Bft)
15.03.2011 05:10 4,6 C 94 % 1018,3 hPa 0,0 mm 0,0 km/h (0 Bft) N 0 0 min 0 UV-I 0 W/m 0,0 km/h (0 Bft)
15.03.2011 05:20 4,4 C 94 % 1018,3 hPa 0,0 mm 0,0 km/h (0 Bft) N 0 0 min 0 UV-I 0 W/m 0,0 km/h (0 Bft)
15.03.2011 05:30 4,2 C 94 % 1018,4 hPa 0,3 mm 0,0 km/h (0 Bft) N 0 0 min 0 UV-I 0 W/m 0,0 km/h (0 Bft)
15.03.2011 05:40 4,2 C 94 % 1018,5 hPa 0,0 mm 0,0 km/h (0 Bft) N 0 0 min 0 UV-I 0 W/m 0,0 km/h (0 Bft)
15.03.2011 05:50 4,1 C 94 % 1018,4 hPa 0,0 mm 0,0 km/h (0 Bft) W 270 0 min 0 UV-I 0 W/m 1,6 km/h (1 Bft)
15.03.2011 06:00 3,9 C 94 % 1018,4 hPa 0,0 mm 0,0 km/h (0 Bft) N 0 0 min 0 UV-I 0 W/m 0,0 km/h (0 Bft)
15.03.2011 06:10 3,9 C 94 % 1018,2 hPa 0,0 mm 0,0 km/h (0 Bft) W 270 0 min 0 UV-I 0 W/m 1,6 km/h (1 Bft)
15.03.2011 06:20 4,3 C 94 % 1018,2 hPa 0,0 mm 0,0 km/h (0 Bft) W 270 0 min 0 UV-I 0 W/m 1,6 km/h (1 Bft)
15.03.2011 06:30 4,6 C 94 % 1018,3 hPa 0,0 mm 0,0 km/h (0 Bft) W 270 0 min 0 UV-I 0 W/m 3,2 km/h (1 Bft)
15.03.2011 06:40 4,4 C 94 % 1018,3 hPa 0,0 mm 0,0 km/h (0 Bft) N 0 0 min 0 UV-I 0 W/m 0,0 km/h (0 Bft)
15.03.2011 06:50 4,2 C 94 % 1018,3 hPa 0,0 mm 0,0 km/h (0 Bft) N 0 0 min 0 UV-I 0 W/m 0,0 km/h (0 Bft)
15.03.2011 07:00 4,2 C 94 % 1018,3 hPa 0,0 mm 0,0 km/h (0 Bft) N 0 0 min 0 UV-I 7 W/m 0,0 km/h (0 Bft)
15.03.2011 07:10 4,1 C 94 % 1018,4 hPa 0,0 mm 0,0 km/h (0 Bft) N 0 0 min 0 UV-I 14 W/m 0,0 km/h (0 Bft)
15.03.2011 07:20 4,1 C 94 % 1018,3 hPa 0,0 mm 0,0 km/h (0 Bft) N 0 0 min 0 UV-I 32 W/m 0,0 km/h (0 Bft)
15.03.2011 07:30 4,4 C 95 % 1018,4 hPa 0,0 mm 0,0 km/h (0 Bft) W 270 0 min 0 UV-I 44 W/m 1,6 km/h (1 Bft)
15.03.2011 07:40 4,7 C 94 % 1018,5 hPa 0,0 mm 0,0 km/h (0 Bft) W 270 0 min 0 UV-I 63 W/m 1,6 km/h (1 Bft)
15.03.2011 07:50 4,9 C 95 % 1018,4 hPa 0,0 mm 0,0 km/h (0 Bft) N 0 0 min 0 UV-I 77 W/m 0,0 km/h (0 Bft)
15.03.2011 08:00 6,1 C 95 % 1018,4 hPa 0,0 mm 0,7 km/h (0 Bft) W 281 0 min 0 UV-I 98 W/m 4,8 km/h (1 Bft)
15.03.2011 08:10 7,0 C 95 % 1018,5 hPa 0,0 mm 1,6 km/h (1 Bft) W-NW 292 0 min 0 UV-I 114 W/m 6,4 km/h (2 Bft)
15.03.2011 08:20 7,9 C 95 % 1018,5 hPa 0,0 mm 1,6 km/h (1 Bft) NO 45 0 min 1 UV-I 134 W/m 8,0 km/h (2 Bft)
15.03.2011 08:30 8,4 C 95 % 1018,5 hPa 0,0 mm 1,6 km/h (1 Bft) NO 45 0 min 1 UV-I 132 W/m 8,0 km/h (2 Bft)
15.03.2011 08:40 8,7 C 95 % 1018,4 hPa 0,0 mm 1,6 km/h (1 Bft) NO 45 10 min 1 UV-I 167 W/m 6,4 km/h (2 Bft)
15.03.2011 08:50 9,0 C 95 % 1018,5 hPa 0,0 mm 1,6 km/h (1 Bft) NO 45 10 min 1 UV-I 220 W/m 8,0 km/h (2 Bft)
15.03.2011 09:00 9,6 C 94 % 1018,6 hPa 0,0 mm 0,0 km/h (0 Bft) NO 45 10 min 1 UV-I 258 W/m 6,4 km/h (2 Bft)
15.03.2011 09:10 10,2 C 93 % 1018,5 hPa 0,0 mm 0,0 km/h (0 Bft) NO 45 10 min 1 UV-I 294 W/m 4,8 km/h (1 Bft)
15.03.2011 09:20 10,8 C 91 % 1018,5 hPa 0,0 mm 1,6 km/h (1 Bft) NO 45 10 min 1 UV-I 309 W/m 8,0 km/h (2 Bft)
15.03.2011 09:30 11,5 C 88 % 1018,3 hPa 0,0 mm 4,8 km/h (1 Bft) O 90 10 min 1 UV-I 339 W/m 14,5 km/h (3 Bft)
15.03.2011 09:40 12,0 C 85 % 1018,4 hPa 0,0 mm 6,4 km/h (2 Bft) O 90 10 min 1 UV-I 376 W/m 17,7 km/h (3 Bft)
15.03.2011 09:50 12,3 C 83 % 1018,4 hPa 0,0 mm 6,4 km/h (2 Bft) O-SO 112 10 min 1 UV-I 385 W/m 16,1 km/h (3 Bft)
15.03.2011 10:00 12,4 C 82 % 1018,5 hPa 0,0 mm 6,4 km/h (2 Bft) O 90 10 min 1 UV-I 401 W/m 16,1 km/h (3 Bft)
15.03.2011 10:10 12,6 C 82 % 1018,4 hPa 0,0 mm 4,8 km/h (1 Bft) O 90 10 min 2 UV-I 380 W/m 12,9 km/h (3 Bft)
15.03.2011 10:20 12,7 C 81 % 1018,3 hPa 0,0 mm 4,8 km/h (1 Bft) O-SO 112 10 min 2 UV-I 399 W/m 16,1 km/h (3 Bft)
15.03.2011 10:30 12,8 C 80 % 1018,4 hPa 0,0 mm 8,0 km/h (2 Bft) O-SO 112 10 min 2 UV-I 410 W/m 20,9 km/h (4 Bft)
15.03.2011 10:40 13,2 C 78 % 1018,3 hPa 0,0 mm 6,4 km/h (2 Bft) O 90 10 min 2 UV-I 485 W/m 16,1 km/h (3 Bft)
15.03.2011 10:50 13,3 C 78 % 1018,1 hPa 0,0 mm 9,7 km/h (2 Bft) O 90 10 min 2 UV-I 487 W/m 19,3 km/h (3 Bft)
15.03.2011 11:00 13,6 C 76 % 1018,0 hPa 0,0 mm 8,0 km/h (2 Bft) O 90 10 min 2 UV-I 555 W/m 19,3 km/h (3 Bft)
15.03.2011 11:10 14,0 C 75 % 1018,0 hPa 0,0 mm 8,0 km/h (2 Bft) O 90 10 min 2 UV-I 587 W/m 24,1 km/h (4 Bft)
15.03.2011 11:20 14,1 C 75 % 1017,9 hPa 0,0 mm 8,0 km/h (2 Bft) O 90 10 min 2 UV-I 571 W/m 24,1 km/h (4 Bft)
15.03.2011 11:30 14,1 C 74 % 1018,0 hPa 0,0 mm 8,0 km/h (2 Bft) O 90 10 min 2 UV-I 503 W/m 17,7 km/h (3 Bft)
15.03.2011 11:40 14,1 C 74 % 1017,9 hPa 0,0 mm 8,0 km/h (2 Bft) O 90 10 min 2 UV-I 575 W/m 17,7 km/h (3 Bft)
15.03.2011 11:50 14,0 C 74 % 1017,9 hPa 0,0 mm 6,4 km/h (2 Bft) O 90 10 min 2 UV-I 338 W/m 16,1 km/h (3 Bft)
15.03.2011 12:00 14,3 C 74 % 1017,9 hPa 0,0 mm 6,4 km/h (2 Bft) O 90 10 min 2 UV-I 432 W/m 14,5 km/h (3 Bft)
15.03.2011 12:10 14,4 C 73 % 1017,9 hPa 0,0 mm 6,4 km/h (2 Bft) O-NO 67 10 min 2 UV-I 353 W/m 16,1 km/h (3 Bft)
15.03.2011 12:20 14,9 C 70 % 1017,7 hPa 0,0 mm 4,8 km/h (1 Bft) O 90 10 min 2 UV-I 441 W/m 16,1 km/h (3 Bft)
15.03.2011 12:30 15,2 C 69 % 1017,6 hPa 0,0 mm 9,7 km/h (2 Bft) O 90 10 min 3 UV-I 399 W/m 20,9 km/h (4 Bft)
15.03.2011 12:40 15,8 C 68 % 1017,4 hPa 0,0 mm 9,7 km/h (2 Bft) O 90 10 min 3 UV-I 763 W/m 22,5 km/h (4 Bft)
15.03.2011 12:50 16,2 C 66 % 1017,4 hPa 0,0 mm 9,7 km/h (2 Bft) O 90 10 min 3 UV-I 719 W/m 19,3 km/h (3 Bft)
15.03.2011 13:00 16,1 C 66 % 1017,3 hPa 0,0 mm 8,0 km/h (2 Bft) O 90 10 min 3 UV-I 633 W/m 20,9 km/h (4 Bft)
15.03.2011 13:10 15,4 C 68 % 1017,2 hPa 0,0 mm 8,0 km/h (2 Bft) O 90 0 min 2 UV-I 302 W/m 22,5 km/h (4 Bft)
15.03.2011 13:20 14,9 C 69 % 1017,0 hPa 0,0 mm 9,7 km/h (2 Bft) O-SO 112 0 min 2 UV-I 274 W/m 20,9 km/h (4 Bft)
15.03.2011 13:30 14,8 C 69 % 1016,9 hPa 0,0 mm 11,3 km/h (2 Bft) O-SO 112 0 min 2 UV-I 265 W/m 25,7 km/h (4 Bft)
15.03.2011 13:40 15,4 C 67 % 1016,8 hPa 0,0 mm 8,0 km/h (2 Bft) O-SO 112 10 min 2 UV-I 670 W/m 19,3 km/h (3 Bft)
15.03.2011 13:50 16,4 C 65 % 1016,6 hPa 0,0 mm 9,7 km/h (2 Bft) O 90 10 min 2 UV-I 652 W/m 22,5 km/h (4 Bft)
15.03.2011 14:00 16,3 C 65 % 1016,3 hPa 0,0 mm 9,7 km/h (2 Bft) O-SO 112 10 min 2 UV-I 578 W/m 22,5 km/h (4 Bft)
15.03.2011 14:10 15,9 C 64 % 1016,2 hPa 0,0 mm 11,3 km/h (2 Bft) O-SO 112 10 min 2 UV-I 554 W/m 29,0 km/h (5 Bft)
15.03.2011 14:20 16,2 C 63 % 1016,2 hPa 0,0 mm 9,7 km/h (2 Bft) O-SO 112 10 min 2 UV-I 543 W/m 25,7 km/h (4 Bft)
15.03.2011 14:30 16,4 C 62 % 1016,1 hPa 0,0 mm 11,3 km/h (2 Bft) O-SO 112 10 min 2 UV-I 545 W/m 25,7 km/h (4 Bft)
15.03.2011 14:40 16,8 C 60 % 1016,0 hPa 0,0 mm 8,0 km/h (2 Bft) O 90 10 min 2 UV-I 531 W/m 19,3 km/h (3 Bft)
15.03.2011 14:50 16,8 C 61 % 1016,1 hPa 0,0 mm 11,3 km/h (2 Bft) O 90 10 min 2 UV-I 504 W/m 22,5 km/h (4 Bft)
15.03.2011 15:00 16,9 C 61 % 1016,1 hPa 0,0 mm 8,0 km/h (2 Bft) O-SO 112 10 min 2 UV-I 497 W/m 24,1 km/h (4 Bft)
15.03.2011 15:10 17,1 C 60 % 1016,1 hPa 0,0 mm 8,0 km/h (2 Bft) O 90 10 min 2 UV-I 483 W/m 20,9 km/h (4 Bft)
15.03.2011 15:20 17,1 C 59 % 1015,8 hPa 0,0 mm 6,4 km/h (2 Bft) O 90 10 min 1 UV-I 504 W/m 22,5 km/h (4 Bft)
15.03.2011 15:30 17,2 C 60 % 1015,9 hPa 0,0 mm 8,0 km/h (2 Bft) O 90 10 min 1 UV-I 526 W/m 19,3 km/h (3 Bft)
15.03.2011 15:40 17,2 C 60 % 1015,9 hPa 0,0 mm 6,4 km/h (2 Bft) O 90 10 min 1 UV-I 475 W/m 17,7 km/h (3 Bft)
15.03.2011 15:50 16,7 C 62 % 1015,9 hPa 0,0 mm 9,7 km/h (2 Bft) O 90 10 min 1 UV-I 424 W/m 17,7 km/h (3 Bft)
15.03.2011 16:00 16,2 C 62 % 1015,8 hPa 0,0 mm 6,4 km/h (2 Bft) O-SO 105 0 min 1 UV-I 172 W/m 17,7 km/h (3 Bft)
15.03.2011 16:10 16,0 C 63 % 1015,7 hPa 0,0 mm 4,8 km/h (1 Bft) O-NO 67 10 min 1 UV-I 192 W/m 17,7 km/h (3 Bft)
15.03.2011 16:20 15,5 C 66 % 1015,6 hPa 0,0 mm 6,4 km/h (2 Bft) O 90 10 min 1 UV-I 183 W/m 20,9 km/h (4 Bft)
15.03.2011 16:30 15,4 C 65 % 1015,6 hPa 0,0 mm 8,0 km/h (2 Bft) O 90 10 min 1 UV-I 269 W/m 20,9 km/h (4 Bft)
15.03.2011 16:40 15,1 C 67 % 1015,5 hPa 0,0 mm 6,4 km/h (2 Bft) O-NO 67 0 min 1 UV-I 88 W/m 19,3 km/h (3 Bft)
15.03.2011 16:50 14,6 C 70 % 1015,5 hPa 0,0 mm 4,8 km/h (1 Bft) O-NO 67 0 min 1 UV-I 114 W/m 11,3 km/h (2 Bft)
15.03.2011 17:00 14,2 C 72 % 1015,6 hPa 0,0 mm 6,4 km/h (2 Bft) O 90 10 min 1 UV-I 162 W/m 19,3 km/h (3 Bft)
15.03.2011 17:10 14,2 C 72 % 1015,6 hPa 0,0 mm 6,4 km/h (2 Bft) O 90 10 min 0 UV-I 146 W/m 19,3 km/h (3 Bft)
15.03.2011 17:20 14,2 C 72 % 1015,6 hPa 0,0 mm 8,0 km/h (2 Bft) O 90 10 min 0 UV-I 120 W/m 19,3 km/h (3 Bft)
15.03.2011 17:30 14,0 C 72 % 1015,6 hPa 0,0 mm 8,0 km/h (2 Bft) O 90 10 min 0 UV-I 104 W/m 19,3 km/h (3 Bft)
15.03.2011 17:40 13,7 C 72 % 1015,7 hPa 0,0 mm 8,0 km/h (2 Bft) O-NO 67 10 min 0 UV-I 83 W/m 20,9 km/h (4 Bft)
15.03.2011 17:50 13,3 C 73 % 1015,8 hPa 0,0 mm 6,4 km/h (2 Bft) O 90 10 min 0 UV-I 60 W/m 19,3 km/h (3 Bft)
15.03.2011 18:00 13,0 C 73 % 1015,8 hPa 0,0 mm 6,4 km/h (2 Bft) O 90 10 min 0 UV-I 42 W/m 20,9 km/h (4 Bft)
15.03.2011 18:10 12,7 C 74 % 1015,8 hPa 0,0 mm 6,4 km/h (2 Bft) O 90 10 min 0 UV-I 26 W/m 19,3 km/h (3 Bft)
15.03.2011 18:20 12,4 C 75 % 1015,8 hPa 0,0 mm 6,4 km/h (2 Bft) O-NO 67 0 min 0 UV-I 14 W/m 17,7 km/h (3 Bft)
15.03.2011 18:30 12,1 C 75 % 1016,0 hPa 0,0 mm 8,0 km/h (2 Bft) O 90 0 min 0 UV-I 5 W/m 25,7 km/h (4 Bft)
15.03.2011 18:40 11,9 C 76 % 1015,9 hPa 0,0 mm 8,0 km/h (2 Bft) O 90 0 min 0 UV-I 0 W/m 17,7 km/h (3 Bft)
15.03.2011 18:50 11,7 C 76 % 1016,0 hPa 0,0 mm 8,0 km/h (2 Bft) O 90 0 min 0 UV-I 0 W/m 19,3 km/h (3 Bft)
15.03.2011 19:00 11,4 C 77 % 1016,1 hPa 0,0 mm 8,0 km/h (2 Bft) O 90 0 min 0 UV-I 0 W/m 17,7 km/h (3 Bft)
15.03.2011 19:10 11,1 C 78 % 1016,4 hPa 0,0 mm 6,4 km/h (2 Bft) O-NO 67 0 min 0 UV-I 0 W/m 20,9 km/h (4 Bft)
15.03.2011 19:20 10,9 C 78 % 1016,3 hPa 0,0 mm 6,4 km/h (2 Bft) O 90 0 min 0 UV-I 0 W/m 19,3 km/h (3 Bft)
15.03.2011 19:30 10,7 C 79 % 1016,3 hPa 0,0 mm 8,0 km/h (2 Bft) O 90 0 min 0 UV-I 0 W/m 16,1 km/h (3 Bft)
15.03.2011 19:40 10,6 C 78 % 1016,4 hPa 0,0 mm 8,0 km/h (2 Bft) O 90 0 min 0 UV-I 0 W/m 16,1 km/h (3 Bft)
15.03.2011 19:50 10,4 C 78 % 1016,5 hPa 0,0 mm 8,0 km/h (2 Bft) O 90 0 min 0 UV-I 0 W/m 16,1 km/h (3 Bft)
15.03.2011 20:00 10,3 C 78 % 1016,5 hPa 0,0 mm 9,7 km/h (2 Bft) O 90 0 min 0 UV-I 0 W/m 20,9 km/h (4 Bft)
15.03.2011 20:10 10,2 C 78 % 1016,5 hPa 0,0 mm 8,0 km/h (2 Bft) O 90 0 min 0 UV-I 0 W/m 19,3 km/h (3 Bft)
15.03.2011 20:20 10,1 C 79 % 1016,4 hPa 0,0 mm 8,0 km/h (2 Bft) O 90 0 min 0 UV-I 0 W/m 20,9 km/h (4 Bft)
15.03.2011 20:30 9,8 C 80 % 1016,4 hPa 0,0 mm 6,4 km/h (2 Bft) O 90 0 min 0 UV-I 0 W/m 16,1 km/h (3 Bft)
15.03.2011 20:40 9,7 C 80 % 1016,4 hPa 0,0 mm 6,4 km/h (2 Bft) O 90 0 min 0 UV-I 0 W/m 16,1 km/h (3 Bft)
15.03.2011 20:50 9,6 C 80 % 1016,5 hPa 0,0 mm 8,0 km/h (2 Bft) O 90 0 min 0 UV-I 0 W/m 22,5 km/h (4 Bft)
15.03.2011 21:00 9,6 C 81 % 1016,6 hPa 0,0 mm 6,4 km/h (2 Bft) O 90 0 min 0 UV-I 0 W/m 17,7 km/h (3 Bft)
15.03.2011 21:10 9,4 C 81 % 1016,4 hPa 0,0 mm 6,4 km/h (2 Bft) O-SO 112 0 min 0 UV-I 0 W/m 14,5 km/h (3 Bft)
15.03.2011 21:20 9,4 C 81 % 1016,5 hPa 0,0 mm 6,4 km/h (2 Bft) O-SO 112 0 min 0 UV-I 0 W/m 22,5 km/h (4 Bft)
15.03.2011 21:30 9,4 C 81 % 1016,7 hPa 0,0 mm 6,4 km/h (2 Bft) O-SO 112 0 min 0 UV-I 0 W/m 19,3 km/h (3 Bft)
15.03.2011 21:40 9,3 C 80 % 1016,5 hPa 0,0 mm 8,0 km/h (2 Bft) O 90 0 min 0 UV-I 0 W/m 25,7 km/h (4 Bft)
15.03.2011 21:50 9,3 C 80 % 1016,6 hPa 0,0 mm 8,0 km/h (2 Bft) O 90 0 min 0 UV-I 0 W/m 24,1 km/h (4 Bft)
15.03.2011 22:00 9,3 C 79 % 1016,6 hPa 0,0 mm 6,4 km/h (2 Bft) O-SO 112 0 min 0 UV-I 0 W/m 17,7 km/h (3 Bft)
15.03.2011 22:10 9,3 C 79 % 1016,6 hPa 0,0 mm 4,8 km/h (1 Bft) O 90 0 min 0 UV-I 0 W/m 19,3 km/h (3 Bft)
15.03.2011 22:20 9,3 C 79 % 1016,5 hPa 0,0 mm 4,8 km/h (1 Bft) O-SO 112 0 min 0 UV-I 0 W/m 17,7 km/h (3 Bft)
15.03.2011 22:30 9,2 C 79 % 1016,5 hPa 0,0 mm 3,2 km/h (1 Bft) O-NO 67 0 min 0 UV-I 0 W/m 11,3 km/h (2 Bft)
15.03.2011 22:40 9,1 C 79 % 1016,5 hPa 0,0 mm 3,2 km/h (1 Bft) O 90 0 min 0 UV-I 0 W/m 9,7 km/h (2 Bft)
15.03.2011 22:50 9,0 C 80 % 1016,5 hPa 0,0 mm 3,2 km/h (1 Bft) O 90 0 min 0 UV-I 0 W/m 11,3 km/h (2 Bft)
15.03.2011 23:00 8,9 C 80 % 1016,4 hPa 0,0 mm 1,6 km/h (1 Bft) O 90 0 min 0 UV-I 0 W/m 8,0 km/h (2 Bft)
15.03.2011 23:10 8,7 C 81 % 1016,2 hPa 0,0 mm 3,2 km/h (1 Bft) O 90 0 min 0 UV-I 0 W/m 8,0 km/h (2 Bft)
15.03.2011 23:20 8,7 C 81 % 1016,2 hPa 0,0 mm 3,2 km/h (1 Bft) O 90 0 min 0 UV-I 0 W/m 9,7 km/h (2 Bft)
15.03.2011 23:30 8,7 C 81 % 1016,2 hPa 0,0 mm 3,2 km/h (1 Bft) O 90 0 min 0 UV-I 0 W/m 9,7 km/h (2 Bft)
15.03.2011 23:40 8,6 C 81 % 1016,2 hPa 0,0 mm 4,8 km/h (1 Bft) O 90 0 min 0 UV-I 0 W/m 14,5 km/h (3 Bft)
15.03.2011 23:50 8,7 C 81 % 1016,2 hPa 0,0 mm 4,8 km/h (1 Bft) O 90 0 min 0 UV-I 0 W/m 9,7 km/h (2 Bft)
_ Min-Zeit 05:50 15:20 16:40 - 00:00 - - - - - 00:00
Minimum _ 3,9 C 59 % 1015,5 hPa - 0,0 km/h (0 Bft) - - - - - 0,0 km/h (0 Bft)
_ Max-Zeit 15:20 07:30 00:00 05:30 13:30 - - 08:40 12:40 12:40 14:10
Maximum _ 17,3 C 95 % 1018,9 hPa 0,3 mm 11,3 km/h
O-SO (2 Bft)
- - 10 min 3 UV-I 763 W/m 29,0 km/h
O (5 Bft)
Durchschnitt _ 10,0 C 82 % 1017,4 hPa #0,3 mm 4,3 km/h (1 Bft) O - #8:40 h 2 UV-I 323 W/m 11,7 km/h (2 Bft)